Time;durP1;ratioP1;P1;durP2;ratioP2;P2;SDS_P1;SDS_P2;PMS_P1;PMS_P2;Temp;Humidity;BMP_temperature;BMP_pressure;BME280_temperature;BME280_humidity;BME280_pressure;Samples;Min_cycle;Max_cycle;Signal;HPM_P1;HPM_P2
2022/07/05 00:02:05;;;;;;;0.25;0.25;;;19.50;98.00;;;;;;5096464;28;20470;-83
2022/07/05 00:04:31;;;;;;;0.82;0.82;;;19.50;98.20;;;;;;5096455;28;20047;-83
2022/07/05 00:09:40;;;;;;;0.55;0.55;;;19.40;98.20;;;;;;5096974;28;20066;-84
2022/07/05 00:12:07;;;;;;;0.63;0.63;;;19.40;98.40;;;;;;5095160;28;20024;-83
2022/07/05 00:14:32;;;;;;;0.30;0.30;;;19.30;98.60;;;;;;5095614;28;20024;-83
2022/07/05 00:16:58;;;;;;;0.73;0.73;;;19.40;98.50;;;;;;5096232;28;20481;-83
2022/07/05 00:19:24;;;;;;;0.22;0.22;;;19.30;98.40;;;;;;5095264;28;20364;-83
2022/07/05 00:21:49;;;;;;;0.60;0.60;;;19.30;98.30;;;;;;5096169;28;20047;-83
2022/07/05 00:24:15;;;;;;;1.08;0.63;;;19.30;98.80;;;;;;5111816;28;20052;-83
2022/07/05 00:26:41;;;;;;;0.30;0.30;;;19.20;98.80;;;;;;5096286;28;20467;-83
2022/07/05 00:29:06;;;;;;;0.45;0.35;;;19.20;98.60;;;;;;5095287;28;20059;-83
2022/07/05 00:31:32;;;;;;;0.85;0.63;;;19.20;98.80;;;;;;5096193;28;20028;-83
2022/07/05 00:33:58;;;;;;;0.85;0.85;;;19.20;99.10;;;;;;5094806;28;20020;-83
2022/07/05 00:36:23;;;;;;;0.52;0.52;;;19.20;99.30;;;;;;5094609;28;20031;-84
2022/07/05 00:38:49;;;;;;;0.17;0.10;;;19.10;99.40;;;;;;5094668;28;20024;-84
2022/07/05 00:41:15;;;;;;;0.40;0.40;;;19.10;99.50;;;;;;5094451;28;20020;-83
2022/07/05 00:43:54;;;;;;;0.73;0.73;;;19.10;99.90;;;;;;5111468;28;20032;-83
2022/07/05 00:46:19;;;;;;;0.63;0.63;;;19.10;99.90;;;;;;5094444;28;20028;-83
2022/07/05 00:48:45;;;;;;;0.77;0.77;;;19.00;99.90;;;;;;5095607;28;20089;-84
2022/07/05 00:51:11;;;;;;;0.63;0.63;;;19.00;99.90;;;;;;5111494;28;20031;-83
2022/07/05 00:53:37;;;;;;;0.68;0.68;;;19.00;99.90;;;;;;5094308;28;20035;-83
2022/07/05 00:56:04;;;;;;;0.30;0.30;;;19.00;99.90;;;;;;5094233;28;20115;-83
2022/07/05 00:58:32;;;;;;;0.55;0.55;;;19.00;99.90;;;;;;5095625;28;20035;-83
2022/07/05 01:00:57;;;;;;;0.43;0.43;;;18.90;99.90;;;;;;5094193;28;20043;-84
2022/07/05 01:03:23;;;;;;;0.70;0.70;;;18.90;99.90;;;;;;5111258;28;20059;-84
2022/07/05 01:05:49;;;;;;;0.45;0.45;;;19.00;99.90;;;;;;5095282;28;20031;-84
2022/07/05 01:08:15;;;;;;;0.93;0.93;;;19.00;99.90;;;;;;5095488;28;20035;-84
2022/07/05 01:10:41;;;;;;;0.63;0.63;;;19.00;99.90;;;;;;5094094;28;20031;-84
2022/07/05 01:13:08;;;;;;;0.60;0.60;;;19.00;99.90;;;;;;5094066;28;20108;-84
2022/07/05 01:15:34;;;;;;;0.13;0.13;;;19.00;99.90;;;;;;5094027;28;20608;-84
2022/07/05 01:18:00;;;;;;;0.65;0.65;;;19.00;99.90;;;;;;5094054;28;20059;-84
2022/07/05 01:20:26;;;;;;;0.20;0.20;;;18.90;99.90;;;;;;5110846;28;20466;-84
2022/07/05 01:22:56;;;;;;;0.45;0.45;;;18.90;99.90;;;;;;5093899;28;20027;-83
2022/07/05 01:25:25;;;;;;;0.32;0.32;;;18.90;99.90;;;;;;5094021;28;20440;-83
2022/07/05 01:27:51;;;;;;;0.52;0.52;;;18.80;99.90;;;;;;5093896;28;20084;-84
2022/07/05 01:30:18;;;;;;;0.38;0.38;;;18.90;99.90;;;;;;5093665;28;20425;-84
2022/07/05 01:32:44;;;;;;;0.90;0.75;;;18.80;99.90;;;;;;5093235;28;20110;-84
2022/07/05 01:35:13;;;;;;;0.65;0.30;;;18.80;99.90;;;;;;5094710;28;20027;-84
2022/07/05 01:37:39;;;;;;;0.68;0.68;;;18.80;99.90;;;;;;5094974;28;20077;-84
2022/07/05 01:40:06;;;;;;;0.35;0.35;;;18.70;99.90;;;;;;5093321;28;20035;-84
2022/07/05 01:42:32;;;;;;;0.22;0.22;;;18.70;99.90;;;;;;5093318;28;20035;-83
2022/07/05 01:44:58;;;;;;;0.63;0.20;;;18.70;99.90;;;;;;5093358;28;20382;-83
2022/07/05 01:47:24;;;;;;;0.20;0.20;;;18.70;99.90;;;;;;5110385;28;20028;-84
2022/07/05 01:49:53;;;;;;;0.00;0.00;;;18.60;99.90;;;;;;5093306;28;20034;-84
2022/07/05 01:52:21;;;;;;;0.47;0.38;;;18.60;99.90;;;;;;5093399;28;20462;-84
2022/07/05 01:54:47;;;;;;;1.80;0.55;;;18.60;99.90;;;;;;5094515;28;20470;-84
2022/07/05 01:57:13;;;;;;;0.35;0.35;;;18.60;99.90;;;;;;5093214;28;20024;-84
2022/07/05 01:59:38;;;;;;;0.50;0.50;;;18.60;99.90;;;;;;5093267;28;20024;-84
2022/07/05 02:02:06;;;;;;;0.20;0.20;;;18.50;99.90;;;;;;5093123;28;20390;-84
2022/07/05 02:04:33;;;;;;;0.50;0.50;;;18.60;99.90;;;;;;5094434;28;20024;-84
2022/07/05 02:06:59;;;;;;;0.43;0.40;;;18.60;99.90;;;;;;5094312;28;20024;-84
2022/07/05 02:09:25;;;;;;;0.13;0.13;;;18.60;99.90;;;;;;5092989;28;20031;-84
2022/07/05 02:11:51;;;;;;;0.08;0.08;;;18.50;99.90;;;;;;5094229;28;20020;-84
2022/07/05 02:14:17;;;;;;;0.60;0.60;;;18.60;99.90;;;;;;5092994;28;20028;-84
2022/07/05 02:16:42;;;;;;;0.20;0.20;;;18.50;99.90;;;;;;5092858;28;20455;-84
2022/07/05 02:19:08;;;;;;;2.97;1.25;;;18.60;99.90;;;;;;5093159;28;20043;-84
2022/07/05 02:21:34;;;;;;;0.45;0.35;;;18.50;99.90;;;;;;5109784;28;20462;-84
2022/07/05 02:23:59;;;;;;;1.27;0.63;;;18.60;99.90;;;;;;5092362;28;20020;-84
2022/07/05 02:26:25;;;;;;;0.40;0.40;;;18.60;99.90;;;;;;5092943;28;20188;-84
2022/07/05 02:28:50;;;;;;;0.17;0.17;;;18.60;99.90;;;;;;5092993;28;20093;-84
2022/07/05 02:31:16;;;;;;;1.00;1.00;;;18.60;99.90;;;;;;5093926;28;20486;-83
2022/07/05 02:33:42;;;;;;;0.45;0.43;;;18.60;99.90;;;;;;5092747;28;20516;-84
2022/07/05 02:36:12;;;;;;;0.38;0.38;;;18.60;99.90;;;;;;5109402;28;20386;-84
2022/07/05 02:38:39;;;;;;;0.63;0.63;;;18.70;99.90;;;;;;5092517;28;20023;-84
2022/07/05 02:41:06;;;;;;;0.80;0.80;;;18.70;99.90;;;;;;5092857;28;20111;-84
2022/07/05 02:43:33;;;;;;;1.15;0.82;;;18.80;99.90;;;;;;5093708;28;20546;-84
2022/07/05 02:46:00;;;;;;;0.63;0.52;;;18.90;99.90;;;;;;5092501;28;20035;-83
2022/07/05 02:48:26;;;;;;;0.75;0.75;;;19.00;99.90;;;;;;5093947;28;20032;-84
2022/07/05 02:50:51;;;;;;;1.10;1.02;;;19.10;99.90;;;;;;5093863;28;20024;-84
2022/07/05 02:53:17;;;;;;;1.05;0.73;;;19.30;99.90;;;;;;5093928;28;20478;-84
2022/07/05 02:55:43;;;;;;;2.40;1.17;;;19.40;99.90;;;;;;5092434;28;20115;-84
2022/07/05 02:58:08;;;;;;;0.25;0.25;;;19.60;99.90;;;;;;5093757;28;20016;-84
2022/07/05 03:00:34;;;;;;;1.63;0.80;;;19.80;99.90;;;;;;5092537;28;20034;-84
2022/07/05 03:03:00;;;;;;;1.58;1.48;;;20.00;99.90;;;;;;5093982;28;20485;-85
2022/07/05 03:05:25;;;;;;;2.45;1.35;;;20.20;99.90;;;;;;5093998;28;20067;-84
2022/07/05 03:07:51;;;;;;;1.60;1.50;;;20.40;99.90;;;;;;5093871;28;20482;-84
2022/07/05 03:10:17;;;;;;;1.23;1.13;;;20.50;99.90;;;;;;5093870;28;20541;-85
2022/07/05 03:12:43;;;;;;;2.10;1.50;;;20.70;99.90;;;;;;5092436;28;20043;-85
2022/07/05 03:15:09;;;;;;;0.85;0.85;;;20.80;99.90;;;;;;5092479;28;20473;-85
2022/07/05 03:17:35;;;;;;;0.63;0.63;;;21.00;99.90;;;;;;5093987;28;20028;-85
2022/07/05 03:20:00;;;;;;;0.45;0.45;;;21.10;99.90;;;;;;5109507;28;20574;-85
2022/07/05 03:22:26;;;;;;;0.85;0.85;;;21.20;99.90;;;;;;5109457;28;20125;-85
2022/07/05 03:24:52;;;;;;;0.55;0.55;;;21.40;99.90;;;;;;5092130;28;20098;-85
2022/07/05 03:27:17;;;;;;;1.75;1.42;;;21.50;99.80;;;;;;5093237;28;20028;-85
2022/07/05 03:29:43;;;;;;;1.98;1.88;;;21.50;99.80;;;;;;5093815;28;20381;-85
2022/07/05 03:32:09;;;;;;;5.68;1.38;;;21.50;99.80;;;;;;5093590;28;20027;-85
2022/07/05 03:34:34;;;;;;;0.68;0.68;;;21.50;99.60;;;;;;5093424;28;20025;-85
2022/07/05 03:37:00;;;;;;;0.52;0.52;;;21.60;99.40;;;;;;5093275;28;20030;-84
2022/07/05 03:39:26;;;;;;;1.13;1.13;;;21.50;99.50;;;;;;5092152;28;20027;-85
2022/07/05 03:41:51;;;;;;;0.90;0.90;;;21.50;99.50;;;;;;5092235;28;20470;-85
2022/07/05 03:44:17;;;;;;;1.13;1.10;;;21.40;99.40;;;;;;5092155;28;20053;-85
2022/07/05 03:46:43;;;;;;;1.05;1.05;;;21.40;99.50;;;;;;5109135;28;20096;-85
2022/07/05 03:49:08;;;;;;;0.65;0.65;;;21.30;99.20;;;;;;5094562;28;20024;-85
2022/07/05 03:51:34;;;;;;;0.63;0.63;;;21.30;99.20;;;;;;5097013;28;20033;-85
2022/07/05 03:54:00;;;;;;;1.38;1.27;;;21.40;99.30;;;;;;5096990;28;20028;-85
2022/07/05 03:56:26;;;;;;;2.97;2.08;;;21.40;98.50;;;;;;5096701;28;20024;-85
2022/07/05 03:58:52;;;;;;;1.20;1.13;;;21.40;98.60;;;;;;5112669;28;20027;-85
2022/07/05 04:01:18;;;;;;;2.97;1.92;;;21.40;98.40;;;;;;5096882;28;20055;-85
2022/07/05 04:03:43;;;;;;;1.00;1.00;;;21.50;98.60;;;;;;5095617;28;20054;-85
2022/07/05 04:06:10;;;;;;;1.00;0.77;;;21.60;98.60;;;;;;5095514;28;20028;-86
2022/07/05 04:08:36;;;;;;;0.55;0.38;;;21.70;98.80;;;;;;5095594;28;20433;-85
2022/07/05 04:11:02;;;;;;;1.00;0.95;;;21.90;98.50;;;;;;5095305;28;20028;-85
2022/07/05 04:13:27;;;;;;;0.60;0.60;;;22.00;98.20;;;;;;5095361;28;20035;-85
2022/07/05 04:15:55;;;;;;;0.63;0.63;;;22.20;98.30;;;;;;5096608;28;20056;-85
2022/07/05 04:18:21;;;;;;;0.43;0.43;;;22.40;98.20;;;;;;5095429;28;20055;-85
2022/07/05 04:20:47;;;;;;;1.10;1.10;;;22.60;97.60;;;;;;5095390;28;20024;-85
2022/07/05 04:23:13;;;;;;;0.95;0.95;;;22.70;97.00;;;;;;5096453;28;20463;-86
2022/07/05 04:25:38;;;;;;;2.30;0.85;;;22.90;96.70;;;;;;5094860;28;20075;-86
2022/07/05 04:28:05;;;;;;;0.55;0.50;;;23.20;95.70;;;;;;5095204;28;20032;-86
2022/07/05 04:30:30;;;;;;;0.85;0.85;;;23.30;95.00;;;;;;5112068;28;20474;-86
2022/07/05 04:32:57;;;;;;;1.00;0.90;;;23.60;93.80;;;;;;5096202;28;20043;-85
2022/07/05 04:35:23;;;;;;;1.00;0.93;;;23.80;93.70;;;;;;5096191;28;20124;-86
2022/07/05 04:37:49;;;;;;;0.82;0.82;;;24.00;92.40;;;;;;5096202;28;20478;-86
2022/07/05 04:40:15;;;;;;;0.70;0.70;;;24.20;92.50;;;;;;5094805;28;20107;-86
2022/07/05 04:42:42;;;;;;;0.55;0.55;;;24.40;92.60;;;;;;5094642;28;20383;-86
2022/07/05 04:45:08;;;;;;;0.82;0.77;;;24.60;91.80;;;;;;5094856;28;20448;-86
2022/07/05 04:47:34;;;;;;;0.85;0.68;;;25.00;92.00;;;;;;5094742;28;20043;-86
2022/07/05 04:50:00;;;;;;;0.80;0.65;;;25.20;87.40;;;;;;5095858;28;20455;-86
2022/07/05 04:52:26;;;;;;;1.20;1.00;;;25.50;87.20;;;;;;5096027;28;20024;-86
2022/07/05 04:54:53;;;;;;;0.10;0.10;;;25.80;88.70;;;;;;5111813;28;20536;-86
2022/07/05 04:57:19;;;;;;;0.75;0.75;;;26.00;86.70;;;;;;5094675;28;20054;-86
2022/07/05 04:59:44;;;;;;;0.20;0.20;;;26.30;84.60;;;;;;5094343;28;20046;-86
2022/07/05 05:02:10;;;;;;;0.52;0.35;;;26.60;84.00;;;;;;5095847;28;20020;-86
2022/07/05 05:04:36;;;;;;;0.38;0.38;;;26.80;80.60;;;;;;5095710;28;20023;-86
2022/07/05 05:07:01;;;;;;;0.88;0.88;;;27.10;77.70;;;;;;5095659;28;20024;-86
2022/07/05 05:09:27;;;;;;;0.68;0.68;;;27.30;77.70;;;;;;5094534;28;20024;-86
2022/07/05 05:11:53;;;;;;;0.90;0.90;;;27.40;74.80;;;;;;5095763;28;20063;-86
2022/07/05 05:14:18;;;;;;;0.75;0.75;;;27.50;77.20;;;;;;5094053;28;20367;-86
2022/07/05 05:16:44;;;;;;;0.47;0.47;;;27.60;75.00;;;;;;5094186;28;20051;-86
2022/07/05 05:19:10;;;;;;;0.20;0.15;;;27.70;75.20;;;;;;5094134;28;20051;-86
2022/07/05 05:21:35;;;;;;;1.35;1.02;;;27.70;74.10;;;;;;5111031;28;20020;-86
2022/07/05 05:24:01;;;;;;;1.10;1.02;;;27.80;72.70;;;;;;5093772;28;20452;-86
2022/07/05 05:26:27;;;;;;;0.40;0.38;;;27.80;74.90;;;;;;5093858;28;20035;-86
2022/07/05 05:28:53;;;;;;;0.60;0.60;;;28.00;74.70;;;;;;5110964;28;20028;-86
2022/07/05 05:31:19;;;;;;;0.43;0.43;;;28.10;72.30;;;;;;5093888;28;20023;-86
2022/07/05 05:33:45;;;;;;;0.40;0.40;;;28.30;72.20;;;;;;5110948;28;20123;-86
2022/07/05 05:36:11;;;;;;;0.98;0.82;;;28.40;73.40;;;;;;5093611;28;20052;-86
2022/07/05 05:38:37;;;;;;;1.40;1.25;;;28.50;71.10;;;;;;5110902;28;20066;-86
2022/07/05 05:41:03;;;;;;;0.35;0.35;;;28.60;69.90;;;;;;5093609;28;20052;-85
2022/07/05 05:43:28;;;;;;;0.60;0.60;;;28.70;71.70;;;;;;5094866;28;20077;-86
2022/07/05 05:45:54;;;;;;;0.25;0.25;;;28.70;70.90;;;;;;5093564;28;20034;-86
2022/07/05 05:48:20;;;;;;;0.73;0.60;;;28.70;70.90;;;;;;5095194;28;20028;-86
2022/07/05 05:50:46;;;;;;;0.57;0.57;;;28.60;68.90;;;;;;5094916;28;20032;-86
2022/07/05 05:53:12;;;;;;;0.55;0.55;;;28.50;67.50;;;;;;5093570;28;20020;-85
2022/07/05 05:55:39;;;;;;;0.90;0.90;;;28.40;68.80;;;;;;5093443;28;20475;-86
2022/07/05 05:58:16;;;;;;;1.40;1.30;;;28.30;73.60;;;;;;5093380;28;20360;-86
2022/07/05 06:00:43;;;;;;;0.73;0.73;;;28.30;75.90;;;;;;5093055;28;20048;-85
2022/07/05 06:03:09;;;;;;;1.55;1.45;;;28.00;79.60;;;;;;5093205;28;20020;-85
2022/07/05 06:05:35;;;;;;;0.77;0.77;;;27.90;80.50;;;;;;5092943;28;20389;-85
2022/07/05 06:08:01;;;;;;;1.48;1.15;;;27.90;81.90;;;;;;5093850;28;20028;-85
2022/07/05 06:10:28;;;;;;;1.38;1.15;;;27.70;83.30;;;;;;5094182;28;20024;-85
2022/07/05 06:12:56;;;;;;;1.08;1.08;;;27.80;84.50;;;;;;5093843;28;20028;-86
2022/07/05 06:15:22;;;;;;;1.80;1.70;;;27.90;83.40;;;;;;5092821;28;20031;-85
2022/07/05 06:17:48;;;;;;;1.55;1.45;;;27.70;83.50;;;;;;5094443;28;20463;-85
2022/07/05 06:20:16;;;;;;;1.23;1.23;;;27.80;85.00;;;;;;5092728;28;20027;-85
2022/07/05 06:22:42;;;;;;;1.98;1.88;;;27.80;84.60;;;;;;5094062;28;20462;-84
2022/07/05 06:25:08;;;;;;;1.40;1.40;;;27.80;85.30;;;;;;5092718;28;20063;-86
2022/07/05 06:27:41;;;;;;;0.57;0.57;;;27.80;84.60;;;;;;5094050;28;20028;-86
2022/07/05 06:30:08;;;;;;;1.08;1.00;;;27.90;84.40;;;;;;5094096;28;20024;-86
2022/07/05 06:32:33;;;;;;;2.47;1.35;;;28.10;84.00;;;;;;5093670;28;20028;-86
2022/07/05 06:34:59;;;;;;;1.02;0.93;;;28.30;82.60;;;;;;5092611;28;20077;-86
2022/07/05 06:37:25;;;;;;;1.25;1.25;;;28.40;81.40;;;;;;5094103;28;20024;-86
2022/07/05 06:39:50;;;;;;;1.20;1.20;;;28.50;80.60;;;;;;5093899;28;20028;-85
2022/07/05 06:42:16;;;;;;;0.88;0.88;;;28.60;80.80;;;;;;5093787;28;20024;-85
2022/07/05 06:44:43;;;;;;;2.22;1.95;;;28.80;79.40;;;;;;5094203;28;20020;-85
2022/07/05 06:47:09;;;;;;;2.22;1.63;;;28.90;80.20;;;;;;5093951;28;20016;-85
2022/07/05 06:49:35;;;;;;;2.38;2.15;;;29.20;79.30;;;;;;5092621;28;20024;-85
2022/07/05 06:52:00;;;;;;;1.33;0.82;;;29.40;77.10;;;;;;5092405;28;20024;-85
2022/07/05 06:54:26;;;;;;;3.17;1.50;;;29.20;75.80;;;;;;5093953;28;20023;-85
2022/07/05 06:56:55;;;;;;;1.95;1.85;;;29.10;77.00;;;;;;5092530;28;20437;-85
2022/07/05 06:59:21;;;;;;;0.90;0.90;;;29.10;76.60;;;;;;5092522;28;20032;-86
2022/07/05 07:01:46;;;;;;;14.00;2.55;;;29.20;78.00;;;;;;5093820;28;20016;-86
2022/07/05 07:04:12;;;;;;;1.92;1.48;;;29.20;77.10;;;;;;5093656;28;20402;-85
2022/07/05 07:06:38;;;;;;;0.88;0.88;;;29.10;77.50;;;;;;5092102;28;20482;-85
2022/07/05 07:09:20;;;;;;;1.60;1.50;;;29.20;77.60;;;;;;5092491;28;20031;-85
2022/07/05 07:11:47;;;;;;;1.77;1.33;;;29.40;77.70;;;;;;5092588;28;20039;-85
2022/07/05 07:14:12;;;;;;;2.15;2.05;;;29.50;77.80;;;;;;5092539;28;20032;-85
2022/07/05 07:16:38;;;;;;;2.58;1.48;;;29.60;73.60;;;;;;5093330;28;20385;-85
2022/07/05 07:19:04;;;;;;;1.00;0.80;;;29.60;74.90;;;;;;5093748;28;20095;-86
2022/07/05 07:21:29;;;;;;;2.00;1.27;;;29.70;73.00;;;;;;5092267;28;20386;-85
2022/07/05 07:23:55;;;;;;;1.30;1.30;;;30.20;74.50;;;;;;5094488;28;20505;-85
2022/07/05 07:26:21;;;;;;;1.00;0.98;;;30.60;71.50;;;;;;5096210;28;20470;-85
2022/07/05 07:28:46;;;;;;;0.77;0.77;;;30.80;67.70;;;;;;5097349;28;20024;-85
2022/07/05 07:31:12;;;;;;;0.90;0.90;;;30.60;69.40;;;;;;5096008;28;20053;-85
2022/07/05 07:33:38;;;;;;;1.33;1.08;;;30.20;69.90;;;;;;5095890;28;20059;-85
2022/07/05 07:36:04;;;;;;;1.73;1.60;;;30.10;70.90;;;;;;5112877;28;20036;-85
2022/07/05 07:38:30;;;;;;;1.55;1.45;;;29.70;72.00;;;;;;5095737;28;20024;-85
2022/07/05 07:40:56;;;;;;;1.77;1.67;;;29.70;73.10;;;;;;5095655;28;20107;-84
2022/07/05 07:43:21;;;;;;;0.70;0.70;;;29.50;72.50;;;;;;5097056;28;20024;-85
2022/07/05 07:45:48;;;;;;;0.60;0.60;;;29.20;74.20;;;;;;5096938;28;20032;-85
2022/07/05 07:48:14;;;;;;;0.60;0.60;;;29.20;74.70;;;;;;5096902;28;20028;-85
2022/07/05 07:50:39;;;;;;;1.00;0.90;;;29.20;74.20;;;;;;5096866;28;20032;-85
2022/07/05 07:53:05;;;;;;;0.60;0.60;;;29.10;74.20;;;;;;5095785;28;20036;-85
2022/07/05 07:55:31;;;;;;;0.88;0.88;;;29.00;73.90;;;;;;5095100;28;20027;-85
2022/07/05 07:57:56;;;;;;;0.75;0.75;;;29.10;72.00;;;;;;5095366;28;20020;-86
2022/07/05 08:00:22;;;;;;;1.10;0.63;;;29.30;73.00;;;;;;5096806;28;20348;-85
2022/07/05 08:02:48;;;;;;;0.55;0.55;;;29.50;72.10;;;;;;5096592;28;20081;-85
2022/07/05 08:05:14;;;;;;;1.23;1.23;;;29.40;71.60;;;;;;5096641;28;20020;-85
2022/07/05 08:07:39;;;;;;;0.55;0.55;;;29.50;72.20;;;;;;5096558;28;20093;-86
2022/07/05 08:10:06;;;;;;;1.08;0.98;;;29.50;73.60;;;;;;5095214;28;20071;-85
2022/07/05 08:12:31;;;;;;;1.65;1.55;;;29.70;72.20;;;;;;5096215;28;20470;-85
2022/07/05 08:14:57;;;;;;;2.08;1.23;;;29.80;72.70;;;;;;5095240;28;20034;-85
2022/07/05 08:17:23;;;;;;;8.80;1.95;;;29.70;74.50;;;;;;5096309;28;20016;-85
2022/07/05 08:22:33;;;;;;;0.98;0.88;;;30.00;72.30;;;;;;5096803;28;20123;-85
2022/07/05 08:24:58;;;;;;;0.90;0.90;;;30.10;71.30;;;;;;5111673;28;20502;-85
2022/07/05 08:27:25;;;;;;;0.90;0.88;;;29.90;70.40;;;;;;5111702;28;20119;-85
2022/07/05 08:29:50;;;;;;;0.98;0.82;;;29.80;70.50;;;;;;5096123;28;20021;-85
2022/07/05 08:32:17;;;;;;;0.65;0.60;;;29.70;70.00;;;;;;5094745;28;20024;-84
2022/07/05 08:34:42;;;;;;;0.68;0.68;;;29.40;69.80;;;;;;5095537;28;20043;-85
2022/07/05 08:37:08;;;;;;;1.27;1.23;;;29.60;70.20;;;;;;5094397;28;20471;-84
2022/07/05 08:39:35;;;;;;;0.40;0.40;;;29.60;68.40;;;;;;5094492;28;20020;-84
2022/07/05 08:42:01;;;;;;;0.17;0.17;;;29.50;68.10;;;;;;5095880;28;20039;-84
2022/07/05 08:44:35;;;;;;;0.10;0.10;;;29.50;68.90;;;;;;5095691;28;20050;-84
2022/07/05 08:47:02;;;;;;;0.52;0.52;;;29.60;66.90;;;;;;5095770;28;20103;-85
2022/07/05 08:49:32;;;;;;;0.10;0.10;;;29.70;67.00;;;;;;5095610;28;20043;-85
2022/07/05 08:51:59;;;;;;;0.20;0.20;;;29.90;66.50;;;;;;5095722;28;20458;-84
2022/07/05 08:54:25;;;;;;;0.52;0.52;;;30.00;65.20;;;;;;5094377;28;20042;-84
2022/07/05 08:56:51;;;;;;;0.35;0.35;;;30.20;64.10;;;;;;5095065;28;20032;-84
2022/07/05 08:59:17;;;;;;;0.32;0.32;;;30.10;64.50;;;;;;5094288;28;20103;-84
2022/07/05 09:01:45;;;;;;;0.10;0.10;;;30.20;63.50;;;;;;5095577;28;20047;-84
2022/07/05 09:04:13;;;;;;;0.98;0.65;;;30.20;63.80;;;;;;5094085;28;20090;-84
2022/07/05 09:06:39;;;;;;;0.70;0.70;;;30.50;64.30;;;;;;5095269;28;20494;-84
2022/07/05 09:09:06;;;;;;;0.20;0.20;;;30.70;62.90;;;;;;5095223;28;20028;-85
2022/07/05 09:11:43;;;;;;;1.20;0.95;;;30.90;63.10;;;;;;5095192;28;20058;-84
2022/07/05 09:14:21;;;;;;;0.08;0.08;;;30.80;60.00;;;;;;5095163;28;20099;-85
2022/07/05 09:16:47;;;;;;;1.25;0.25;;;30.80;61.30;;;;;;5093833;28;20031;-85
2022/07/05 09:19:13;;;;;;;0.25;0.25;;;30.90;61.60;;;;;;5095211;28;20017;-84
2022/07/05 09:21:38;;;;;;;0.50;0.43;;;31.00;61.40;;;;;;5094753;28;20024;-85
2022/07/05 09:24:07;;;;;;;0.55;0.55;;;31.20;61.00;;;;;;5093699;28;20036;-85
2022/07/05 09:26:47;;;;;;;0.70;0.70;;;31.40;61.10;;;;;;5094985;28;20028;-85
2022/07/05 09:29:17;;;;;;;0.47;0.47;;;31.50;61.40;;;;;;5093531;28;20031;-85
2022/07/05 09:31:45;;;;;;;0.60;0.38;;;31.70;58.90;;;;;;5094808;28;20028;-85
2022/07/05 17:29:50;;;;;;;0.50;0.50;;;28.30;59.50;;;;;;5070811;28;20364;-85
2022/07/05 17:32:16;;;;;;;0.00;0.00;;;27.80;60.10;;;;;;5070120;28;20037;-85
2022/07/05 17:34:41;;;;;;;0.20;0.20;;;27.60;60.70;;;;;;5069790;28;20378;-85
2022/07/05 17:37:07;;;;;;;0.57;0.57;;;27.50;60.30;;;;;;5069574;28;20023;-85
2022/07/05 17:39:32;;;;;;;0.17;0.17;;;27.50;61.50;;;;;;5067988;28;20396;-85
2022/07/05 17:41:58;;;;;;;0.00;0.00;;;27.40;62.20;;;;;;5069730;28;20487;-85
2022/07/05 17:44:24;;;;;;;0.10;0.10;;;27.30;62.70;;;;;;5070719;28;20104;-85
2022/07/05 17:46:50;;;;;;;0.00;0.00;;;27.20;62.40;;;;;;5069032;28;20021;-85
2022/07/05 17:49:16;;;;;;;0.38;0.38;;;27.10;63.90;;;;;;5070408;28;20060;-85
2022/07/05 17:51:45;;;;;;;0.20;0.20;;;27.00;62.90;;;;;;5070220;28;20071;-85
2022/07/05 17:54:11;;;;;;;0.30;0.30;;;27.00;64.80;;;;;;5068973;28;20028;-85
2022/07/05 17:56:37;;;;;;;0.45;0.45;;;27.00;64.50;;;;;;5068959;28;20487;-85
2022/07/05 17:59:02;;;;;;;0.20;0.20;;;26.80;64.90;;;;;;5068735;28;20039;-85
2022/07/05 18:01:28;;;;;;;0.03;0.00;;;26.80;65.10;;;;;;5070115;28;20029;-85
2022/07/05 18:03:54;;;;;;;0.30;0.30;;;26.70;65.30;;;;;;5070032;28;20028;-85
2022/07/05 18:06:20;;;;;;;0.38;0.38;;;26.60;66.30;;;;;;5069965;28;20033;-85
2022/07/05 18:08:46;;;;;;;0.38;0.38;;;26.50;65.30;;;;;;5068186;28;20033;-85
2022/07/05 18:11:14;;;;;;;0.13;0.13;;;26.50;66.50;;;;;;5070016;28;20024;-85
2022/07/05 18:13:40;;;;;;;0.40;0.20;;;26.40;68.10;;;;;;5068425;28;20027;-85
2022/07/05 18:16:06;;;;;;;0.13;0.13;;;26.40;66.80;;;;;;5069806;28;20095;-85
2022/07/05 18:18:31;;;;;;;0.00;0.00;;;26.30;66.60;;;;;;5068609;28;20029;-85
2022/07/05 18:20:58;;;;;;;0.17;0.17;;;26.20;66.40;;;;;;5068391;28;20475;-85
2022/07/05 18:23:23;;;;;;;0.00;0.00;;;26.10;67.50;;;;;;5068272;28;20029;-85
2022/07/05 18:25:49;;;;;;;0.00;0.00;;;26.00;67.50;;;;;;5068871;28;20453;-85
2022/07/05 18:28:15;;;;;;;0.28;0.22;;;25.90;67.60;;;;;;5069212;28;20444;-85
2022/07/05 18:30:41;;;;;;;0.55;0.55;;;25.80;67.50;;;;;;5069309;28;20487;-86
2022/07/05 18:33:07;;;;;;;0.40;0.40;;;25.80;67.80;;;;;;5068546;28;20035;-84
2022/07/05 18:35:33;;;;;;;0.00;0.00;;;25.80;68.50;;;;;;5069465;28;20027;-85
2022/07/05 18:37:59;;;;;;;0.65;0.47;;;25.60;68.70;;;;;;5069120;28;20037;-87
2022/07/05 18:40:24;;;;;;;0.15;0.15;;;25.60;69.20;;;;;;5058742;28;20021;-89
2022/07/05 18:42:50;;;;;;;0.80;0.65;;;25.60;69.60;;;;;;5054706;28;20031;-85
2022/07/05 18:45:16;;;;;;;0.50;0.43;;;25.50;69.80;;;;;;5054862;28;20035;-84
2022/07/05 18:47:42;;;;;;;0.10;0.10;;;25.40;71.30;;;;;;5054412;28;20025;-84
2022/07/05 18:50:08;;;;;;;0.17;0.17;;;25.30;71.90;;;;;;5050615;28;20071;-84
2022/07/05 18:52:34;;;;;;;0.20;0.20;;;25.30;72.10;;;;;;5055772;28;20053;-85
2022/07/05 18:55:00;;;;;;;1.55;0.75;;;25.20;71.10;;;;;;5055700;28;20017;-84
2022/07/05 18:57:26;;;;;;;0.10;0.10;;;25.20;70.90;;;;;;5054240;28;20029;-84
2022/07/05 18:59:51;;;;;;;0.20;0.20;;;25.10;72.00;;;;;;5055577;28;20103;-88
2022/07/05 19:02:17;;;;;;;0.17;0.17;;;25.00;72.70;;;;;;5054745;28;20067;-84
2022/07/05 19:04:43;;;;;;;0.50;0.50;;;25.00;72.40;;;;;;5054168;28;20089;-84
2022/07/05 19:15:22;;;;;;;0.70;0.70;;;24.70;75.00;;;;;;5055459;28;20112;-85
2022/07/05 19:17:48;;;;;;;0.22;0.22;;;24.70;74.10;;;;;;5054374;28;20115;-83
2022/07/05 19:20:15;;;;;;;1.10;0.75;;;24.60;74.10;;;;;;5053713;28;20032;-83
2022/07/05 19:22:41;;;;;;;1.08;0.63;;;24.60;73.50;;;;;;5053988;28;20055;-83
2022/07/05 19:25:07;;;;;;;0.08;0.08;;;24.50;73.70;;;;;;5054898;28;20407;-83
2022/07/05 19:27:33;;;;;;;3.00;0.55;;;24.50;75.90;;;;;;5054814;28;20029;-83
2022/07/05 19:29:58;;;;;;;1.38;1.27;;;24.50;75.10;;;;;;5055047;28;20025;-83
2022/07/05 19:32:24;;;;;;;0.68;0.68;;;24.40;74.40;;;;;;5053815;28;20029;-83
2022/07/05 19:34:50;;;;;;;0.47;0.47;;;24.40;75.30;;;;;;5054961;28;20104;-83
2022/07/05 19:37:16;;;;;;;0.30;0.30;;;24.30;74.70;;;;;;5053781;28;20044;-83
2022/07/05 19:39:41;;;;;;;0.10;0.10;;;24.30;74.40;;;;;;5055104;28;20471;-83
2022/07/05 19:42:07;;;;;;;0.57;0.57;;;24.30;74.80;;;;;;5055021;28;20048;-83
2022/07/05 19:44:34;;;;;;;0.47;0.47;;;24.20;74.80;;;;;;5053606;28;20029;-83
2022/07/05 19:47:00;;;;;;;0.43;0.43;;;24.20;76.00;;;;;;5054862;28;20040;-84
2022/07/05 19:49:26;;;;;;;1.75;0.73;;;24.20;75.30;;;;;;5054726;28;20107;-84
2022/07/05 19:51:51;;;;;;;0.60;0.60;;;24.10;75.90;;;;;;5053737;28;20075;-84
2022/07/05 19:54:17;;;;;;;0.43;0.43;;;24.10;75.10;;;;;;5053679;28;20375;-81
2022/07/05 19:56:43;;;;;;;0.17;0.17;;;24.00;75.20;;;;;;5053815;28;20444;-85
2022/07/05 19:59:09;;;;;;;0.77;0.45;;;24.00;74.90;;;;;;5049874;28;20037;-84
2022/07/05 20:01:35;;;;;;;0.43;0.43;;;24.00;75.90;;;;;;5054536;28;20079;-83
2022/07/05 20:04:05;;;;;;;0.75;0.75;;;24.00;75.60;;;;;;5053387;28;20074;-83
2022/07/05 20:06:32;;;;;;;0.00;0.00;;;23.90;75.00;;;;;;5054409;28;20075;-84
2022/07/05 20:08:58;;;;;;;0.28;0.28;;;23.90;75.60;;;;;;5053051;28;20033;-83
2022/07/05 20:11:23;;;;;;;0.52;0.52;;;23.80;75.90;;;;;;5053357;28;20536;-86
2022/07/05 20:13:49;;;;;;;0.55;0.30;;;23.80;74.90;;;;;;5053047;28;20053;-83
2022/07/05 20:16:15;;;;;;;0.00;0.00;;;23.70;75.10;;;;;;5052723;28;20387;-84
2022/07/05 20:18:41;;;;;;;0.35;0.35;;;23.70;75.80;;;;;;5054269;28;20407;-83
2022/07/05 20:21:07;;;;;;;0.13;0.13;;;23.70;76.40;;;;;;5052652;28;20033;-84
2022/07/05 20:23:32;;;;;;;0.43;0.32;;;23.60;76.40;;;;;;5054026;28;20474;-84
2022/07/05 20:25:58;;;;;;;0.28;0.28;;;23.60;76.50;;;;;;5053829;28;20472;-83
2022/07/05 20:28:24;;;;;;;0.05;0.05;;;23.60;77.10;;;;;;5053510;28;20411;-83
2022/07/05 20:30:49;;;;;;;0.75;0.68;;;23.60;76.70;;;;;;5053970;28;20025;-83
2022/07/05 20:33:17;;;;;;;0.70;0.70;;;23.50;76.80;;;;;;5054411;28;20020;-84
2022/07/05 20:35:43;;;;;;;1.10;0.93;;;23.50;76.70;;;;;;5052858;28;20028;-83
2022/07/05 20:38:09;;;;;;;0.15;0.15;;;23.40;76.70;;;;;;5054272;28;20435;-83
2022/07/05 20:40:35;;;;;;;6.55;1.00;;;23.40;77.80;;;;;;5052865;28;20021;-83
2022/07/05 20:43:01;;;;;;;0.65;0.65;;;23.30;76.90;;;;;;5053942;28;20029;-83
2022/07/05 20:45:27;;;;;;;2.42;2.22;;;23.30;76.60;;;;;;5052681;28;20476;-83
2022/07/05 20:47:53;;;;;;;2.78;2.58;;;23.20;77.70;;;;;;5054021;28;20028;-82
2022/07/05 20:50:18;;;;;;;3.28;2.97;;;23.20;77.60;;;;;;5053899;28;20029;-83
2022/07/05 20:52:45;;;;;;;6.10;3.03;;;23.20;77.00;;;;;;5052614;28;20021;-82